Time;durP1;ratioP1;P1;durP2;ratioP2;P2;SDS_P1;SDS_P2;PMS_P1;PMS_P2;Temp;Humidity;BMP_temperature;BMP_pressure;BME280_temperature;BME280_humidity;BME280_pressure;Samples;Min_cycle;Max_cycle;Signal;HPM_P1;HPM_P2
2023/06/21 00:01:38;;;;;;;12.13;5.80;;;22.30;99.50;;;;;;5027636;28;20049;-76
2023/06/21 00:04:08;;;;;;;15.75;6.25;;;22.20;99.60;;;;;;5034784;28;20698;-76
2023/06/21 00:06:37;;;;;;;13.27;5.63;;;22.20;99.70;;;;;;5022575;28;20064;-76
2023/06/21 00:09:06;;;;;;;16.60;6.75;;;22.20;99.80;;;;;;5029639;28;20488;-76
2023/06/21 00:11:32;;;;;;;13.65;5.85;;;22.20;99.90;;;;;;5046200;28;20032;-75
2023/06/21 00:13:58;;;;;;;11.57;5.95;;;22.20;99.90;;;;;;5045865;28;20160;-75
2023/06/21 00:16:23;;;;;;;12.48;6.13;;;22.10;99.90;;;;;;5048905;28;20120;-76
2023/06/21 00:18:49;;;;;;;11.80;6.47;;;22.10;99.90;;;;;;5049705;28;20036;-76
2023/06/21 00:21:15;;;;;;;15.77;6.25;;;22.10;99.90;;;;;;5049225;28;20025;-76
2023/06/21 00:23:43;;;;;;;11.65;7.03;;;22.00;99.90;;;;;;5046415;28;20476;-76
2023/06/21 00:26:09;;;;;;;14.07;6.45;;;22.00;99.90;;;;;;5045830;28;20032;-75
2023/06/21 00:28:35;;;;;;;11.52;5.75;;;22.00;99.90;;;;;;5047201;28;20029;-75
2023/06/21 00:31:00;;;;;;;11.18;6.22;;;22.00;99.90;;;;;;5047837;28;20009;-75
2023/06/21 00:33:26;;;;;;;15.45;6.72;;;22.00;99.90;;;;;;5023703;28;20040;-75
2023/06/21 00:35:52;;;;;;;12.50;6.22;;;21.90;99.90;;;;;;5046220;28;20059;-76
2023/06/21 00:38:18;;;;;;;14.30;6.70;;;21.90;99.90;;;;;;5026304;28;20029;-75
2023/06/21 00:40:43;;;;;;;11.95;6.85;;;21.80;99.90;;;;;;5045708;28;20029;-76
2023/06/21 00:43:09;;;;;;;14.15;6.85;;;21.80;99.90;;;;;;5028961;28;20080;-76
2023/06/21 00:45:45;;;;;;;14.65;7.13;;;21.80;99.90;;;;;;5048801;28;20028;-75
2023/06/21 00:48:11;;;;;;;11.13;6.47;;;21.80;99.90;;;;;;5043702;28;20021;-75
2023/06/21 00:50:38;;;;;;;13.30;6.40;;;21.70;99.90;;;;;;5027292;28;20025;-76
2023/06/21 00:53:04;;;;;;;17.83;7.03;;;21.70;99.90;;;;;;5046686;28;20028;-75
2023/06/21 00:55:30;;;;;;;11.05;6.15;;;21.70;99.90;;;;;;5048121;28;20385;-75
2023/06/21 00:57:57;;;;;;;10.63;6.50;;;21.70;99.90;;;;;;5048182;28;20013;-75
2023/06/21 01:00:25;;;;;;;11.82;6.32;;;21.70;99.90;;;;;;5030669;28;20032;-75
2023/06/21 01:02:52;;;;;;;14.65;7.07;;;21.70;99.90;;;;;;5045210;28;20029;-75
2023/06/21 01:05:22;;;;;;;13.75;6.85;;;21.70;99.90;;;;;;5042837;28;20022;-75
2023/06/21 01:08:21;;;;;;;12.70;6.70;;;21.70;99.90;;;;;;5045747;28;20448;-75
2023/06/21 01:10:53;;;;;;;12.75;6.85;;;21.70;99.90;;;;;;5041014;28;20379;-76
2023/06/21 01:13:27;;;;;;;13.32;6.85;;;21.60;99.90;;;;;;5041127;28;20029;-75
2023/06/21 01:16:23;;;;;;;15.98;7.47;;;21.60;99.90;;;;;;5041742;28;20412;-75
2023/06/21 01:18:52;;;;;;;12.93;6.60;;;21.60;99.90;;;;;;5042303;28;20037;-75
2023/06/21 01:21:23;;;;;;;19.70;7.90;;;21.60;99.90;;;;;;5042791;28;20101;-75
2023/06/21 01:24:26;;;;;;;11.80;6.53;;;21.50;99.90;;;;;;5041470;28;20032;-75
2023/06/21 01:27:09;;;;;;;12.13;6.82;;;21.50;99.90;;;;;;5044696;28;20120;-76
2023/06/21 01:29:39;;;;;;;11.45;7.65;;;21.40;99.90;;;;;;5028868;28;20029;-75
2023/06/21 01:32:07;;;;;;;13.55;6.15;;;21.40;99.90;;;;;;5047691;28;20039;-76
2023/06/21 01:34:34;;;;;;;15.23;6.40;;;21.40;99.90;;;;;;5048716;28;20025;-76
2023/06/21 01:37:00;;;;;;;11.43;6.00;;;21.40;99.90;;;;;;5042625;28;20021;-76
2023/06/21 01:39:27;;;;;;;14.32;6.40;;;21.40;99.90;;;;;;5041725;28;20405;-76
2023/06/21 01:41:53;;;;;;;10.25;5.93;;;21.40;99.90;;;;;;5025532;28;20111;-75
2023/06/21 01:44:19;;;;;;;14.40;7.00;;;21.40;99.90;;;;;;5022541;28;20560;-74
2023/06/21 01:46:46;;;;;;;13.27;7.40;;;21.30;99.90;;;;;;5030641;28;20018;-74
2023/06/21 01:49:13;;;;;;;11.50;6.72;;;21.30;99.90;;;;;;5054404;28;20030;-73
2023/06/21 01:51:41;;;;;;;15.02;6.88;;;21.30;99.90;;;;;;5052985;28;20255;-74
2023/06/21 01:54:07;;;;;;;13.55;7.63;;;21.30;99.90;;;;;;5062785;28;20012;-74
2023/06/21 01:56:34;;;;;;;16.50;7.82;;;21.30;99.90;;;;;;5068832;28;20557;-74
2023/06/21 01:59:01;;;;;;;15.90;8.23;;;21.30;99.90;;;;;;5032947;28;20025;-75
2023/06/21 02:01:28;;;;;;;12.32;6.30;;;21.20;99.90;;;;;;5065293;28;20099;-76
2023/06/21 02:04:00;;;;;;;12.65;7.55;;;21.20;99.90;;;;;;5071374;28;20013;-76
2023/06/21 02:06:30;;;;;;;9.70;6.50;;;21.10;99.90;;;;;;5061039;28;20116;-73
2023/06/21 02:09:00;;;;;;;14.80;6.78;;;21.10;99.90;;;;;;5051199;28;20447;-75
2023/06/21 02:11:28;;;;;;;12.50;7.10;;;21.20;99.90;;;;;;5070969;28;20036;-76
2023/06/21 02:13:54;;;;;;;13.32;7.47;;;21.10;99.90;;;;;;5043392;28;20028;-74
2023/06/21 02:16:30;;;;;;;13.05;7.55;;;21.00;99.90;;;;;;5050870;28;20383;-75
2023/06/21 02:18:56;;;;;;;9.98;7.05;;;21.00;99.90;;;;;;5052325;28;20040;-74
2023/06/21 02:21:22;;;;;;;10.75;7.15;;;21.00;99.90;;;;;;5037919;28;20013;-75
2023/06/21 02:23:48;;;;;;;10.25;6.72;;;21.00;99.90;;;;;;5044814;28;20074;-75
2023/06/21 02:26:14;;;;;;;18.50;7.68;;;20.90;99.90;;;;;;5063285;28;20018;-75
2023/06/21 02:28:41;;;;;;;9.93;7.20;;;20.90;99.90;;;;;;5051421;28;20032;-76
2023/06/21 02:31:06;;;;;;;13.20;6.70;;;21.00;99.90;;;;;;5052999;28;20021;-75
2023/06/21 02:33:32;;;;;;;16.48;6.78;;;20.90;99.90;;;;;;5058049;28;20086;-75
2023/06/21 02:35:58;;;;;;;14.23;7.18;;;20.90;99.90;;;;;;5069066;28;20502;-75
2023/06/21 02:38:27;;;;;;;11.80;6.47;;;20.90;99.90;;;;;;5074658;28;20084;-75
2023/06/21 02:40:53;;;;;;;10.57;6.68;;;20.90;99.90;;;;;;5066136;28;20028;-75
2023/06/21 02:43:18;;;;;;;16.67;6.43;;;20.80;99.90;;;;;;5074247;28;20025;-75
2023/06/21 02:45:45;;;;;;;12.80;6.53;;;20.80;99.90;;;;;;5053807;28;20025;-75
2023/06/21 02:48:11;;;;;;;11.15;6.95;;;20.90;99.90;;;;;;5062335;28;20081;-75
2023/06/21 02:50:36;;;;;;;10.40;6.97;;;20.80;99.90;;;;;;5059305;28;20037;-75
2023/06/21 02:53:02;;;;;;;15.45;6.93;;;20.80;99.90;;;;;;5048088;28;20028;-76
2023/06/21 02:55:28;;;;;;;14.45;7.22;;;20.80;99.90;;;;;;5055270;28;20033;-76
2023/06/21 02:57:54;;;;;;;12.00;6.63;;;20.80;99.90;;;;;;5036997;28;20124;-76
2023/06/21 03:00:28;;;;;;;19.77;7.28;;;20.80;99.90;;;;;;5053972;28;20485;-76
2023/06/21 03:03:00;;;;;;;11.43;7.05;;;20.70;99.90;;;;;;5016813;28;20021;-76
2023/06/21 03:05:35;;;;;;;14.07;7.07;;;20.70;99.90;;;;;;5034543;28;20033;-76
2023/06/21 03:08:04;;;;;;;17.42;6.80;;;20.70;99.90;;;;;;5034493;28;20514;-75
2023/06/21 03:10:32;;;;;;;9.27;6.38;;;20.70;99.90;;;;;;5034147;28;20060;-75
2023/06/21 03:12:58;;;;;;;9.90;7.32;;;20.70;99.90;;;;;;5034305;28;20029;-75
2023/06/21 03:15:24;;;;;;;11.25;7.43;;;20.70;99.90;;;;;;5034179;28;20030;-76
2023/06/21 03:17:49;;;;;;;12.52;7.90;;;20.70;99.90;;;;;;5016043;28;20049;-76
2023/06/21 03:20:15;;;;;;;15.45;6.95;;;20.70;99.90;;;;;;5033930;28;20075;-75
2023/06/21 03:22:42;;;;;;;10.02;7.68;;;20.70;99.90;;;;;;5033984;28;20088;-75
2023/06/21 03:25:12;;;;;;;16.42;8.48;;;20.70;99.90;;;;;;5034533;28;20064;-76
2023/06/21 03:27:39;;;;;;;12.73;8.15;;;20.70;99.90;;;;;;5034996;28;20026;-76
2023/06/21 03:30:12;;;;;;;12.30;6.95;;;20.70;99.90;;;;;;5034206;28;20026;-75
2023/06/21 03:32:48;;;;;;;13.95;7.45;;;20.70;99.90;;;;;;5034582;28;20025;-76
2023/06/21 03:35:18;;;;;;;16.23;7.55;;;20.70;99.90;;;;;;5034368;28;20029;-74
2023/06/21 03:37:46;;;;;;;15.60;7.72;;;20.70;99.90;;;;;;5034650;28;20033;-74
2023/06/21 03:40:13;;;;;;;13.52;7.07;;;20.70;99.90;;;;;;5034317;28;20009;-75
2023/06/21 03:42:39;;;;;;;14.32;7.68;;;20.70;99.90;;;;;;5016518;28;20067;-75
2023/06/21 03:45:06;;;;;;;10.68;7.75;;;20.80;99.90;;;;;;5055699;28;20032;-76
2023/06/21 03:47:32;;;;;;;12.90;7.85;;;20.80;99.90;;;;;;5073397;28;20024;-75
2023/06/21 03:49:57;;;;;;;10.48;7.10;;;20.80;99.90;;;;;;5055438;28;20025;-75
2023/06/21 03:52:26;;;;;;;12.23;7.13;;;20.80;99.90;;;;;;5073341;28;20487;-75
2023/06/21 03:54:55;;;;;;;11.10;7.22;;;20.80;99.90;;;;;;5073956;28;20086;-75
2023/06/21 03:57:20;;;;;;;14.80;7.75;;;20.90;99.90;;;;;;5074170;28;20033;-75
2023/06/21 03:59:46;;;;;;;15.40;7.80;;;20.90;99.90;;;;;;5066126;28;20445;-75
2023/06/21 04:02:11;;;;;;;11.50;7.78;;;20.90;99.90;;;;;;5053147;28;20025;-74
2023/06/21 04:04:38;;;;;;;13.80;7.45;;;20.90;99.90;;;;;;5053501;28;20387;-74
2023/06/21 04:07:04;;;;;;;17.33;8.10;;;20.90;99.90;;;;;;5053600;28;20056;-75
2023/06/21 04:09:30;;;;;;;19.27;8.70;;;20.90;99.90;;;;;;5064333;28;20467;-75
2023/06/21 04:11:56;;;;;;;23.73;8.52;;;21.00;99.90;;;;;;5063461;28;20039;-75
2023/06/21 04:14:22;;;;;;;14.63;8.25;;;21.00;99.90;;;;;;5059466;28;20048;-75
2023/06/21 04:16:48;;;;;;;18.33;9.15;;;20.90;99.90;;;;;;5060865;28;20101;-75
2023/06/21 04:19:13;;;;;;;19.73;9.20;;;20.90;99.90;;;;;;5043905;28;20030;-74
2023/06/21 04:21:39;;;;;;;13.38;9.63;;;20.90;99.90;;;;;;5055417;28;20476;-74
2023/06/21 04:24:05;;;;;;;23.58;9.68;;;20.90;99.90;;;;;;5064329;28;20430;-75
2023/06/21 04:26:31;;;;;;;15.43;8.55;;;20.80;99.90;;;;;;5060174;28;20016;-75
2023/06/21 04:28:56;;;;;;;12.35;8.32;;;20.80;99.90;;;;;;5037811;28;20112;-76
2023/06/21 04:31:22;;;;;;;16.73;9.05;;;20.80;99.90;;;;;;5070148;28;20029;-76
2023/06/21 04:33:47;;;;;;;19.48;9.32;;;20.70;99.90;;;;;;5044316;28;20438;-77
2023/06/21 04:36:17;;;;;;;19.15;9.00;;;20.70;99.90;;;;;;5038171;28;20029;-75
2023/06/21 04:38:43;;;;;;;17.80;9.02;;;20.70;99.90;;;;;;5061188;28;20020;-75
2023/06/21 04:41:09;;;;;;;17.33;9.10;;;20.70;99.90;;;;;;5057561;28;20808;-75
2023/06/21 04:43:35;;;;;;;17.45;9.68;;;20.80;99.90;;;;;;5053367;28;20035;-74
2023/06/21 04:46:01;;;;;;;18.80;9.27;;;20.70;99.90;;;;;;5053461;28;20024;-73
2023/06/21 04:48:27;;;;;;;14.23;9.13;;;20.80;99.90;;;;;;5053403;28;20029;-73
2023/06/21 04:50:52;;;;;;;14.93;8.55;;;20.80;99.90;;;;;;5053115;28;20032;-73
2023/06/21 04:53:18;;;;;;;18.83;9.35;;;20.80;99.90;;;;;;5053157;28;20037;-74
2023/06/21 04:55:43;;;;;;;17.85;9.65;;;20.80;99.90;;;;;;5052671;28;20381;-73
2023/06/21 04:58:10;;;;;;;15.95;9.27;;;20.90;99.90;;;;;;5052721;28;20396;-73
2023/06/21 05:00:36;;;;;;;13.75;8.48;;;20.90;99.90;;;;;;5052709;28;20155;-73
2023/06/21 05:03:02;;;;;;;17.08;8.68;;;20.90;99.90;;;;;;5053029;28;20085;-72
2023/06/21 05:05:28;;;;;;;18.33;9.18;;;20.90;99.90;;;;;;5052744;28;20025;-73
2023/06/21 05:07:53;;;;;;;16.27;9.90;;;20.90;99.90;;;;;;5053092;28;20031;-74
2023/06/21 05:10:19;;;;;;;12.50;8.75;;;21.00;99.90;;;;;;5034812;28;20395;-75
2023/06/21 05:12:45;;;;;;;12.80;9.00;;;21.00;99.90;;;;;;5052162;28;20025;-74
2023/06/21 05:15:11;;;;;;;15.60;8.50;;;21.10;99.90;;;;;;5052805;28;20108;-74
2023/06/21 05:17:36;;;;;;;13.25;8.77;;;21.10;99.90;;;;;;5052515;28;20021;-74
2023/06/21 05:20:08;;;;;;;12.07;9.15;;;21.10;99.90;;;;;;5052653;28;20017;-74
2023/06/21 05:22:34;;;;;;;15.63;9.07;;;21.20;99.90;;;;;;5051799;28;20031;-74
2023/06/21 05:25:04;;;;;;;13.02;8.30;;;21.20;99.90;;;;;;5052464;28;20029;-74
2023/06/21 05:27:30;;;;;;;17.98;8.90;;;21.30;99.90;;;;;;5052487;28;20028;-74
2023/06/21 05:29:55;;;;;;;16.73;8.85;;;21.30;99.90;;;;;;5052468;28;20033;-73
2023/06/21 05:32:21;;;;;;;13.88;9.52;;;21.30;99.90;;;;;;5034251;28;20047;-73
2023/06/21 05:34:47;;;;;;;15.23;8.60;;;21.40;99.90;;;;;;5045149;28;20023;-70
2023/06/21 05:37:13;;;;;;;15.98;9.02;;;21.40;99.90;;;;;;5046676;28;20025;-71
2023/06/21 05:39:38;;;;;;;13.25;9.30;;;21.40;99.90;;;;;;5041237;28;20041;-70
2023/06/21 05:42:04;;;;;;;14.95;8.50;;;21.50;99.90;;;;;;5043174;28;20029;-70
2023/06/21 05:44:30;;;;;;;16.17;8.38;;;21.50;99.90;;;;;;5045889;28;20098;-70
2023/06/21 05:46:56;;;;;;;16.27;9.50;;;21.60;99.90;;;;;;5026748;28;20510;-70
2023/06/21 05:49:21;;;;;;;15.15;9.05;;;21.70;99.90;;;;;;5043093;28;20148;-71
2023/06/21 05:51:47;;;;;;;15.10;8.57;;;21.80;99.90;;;;;;5047222;28;20033;-71
2023/06/21 05:54:12;;;;;;;15.75;9.05;;;21.80;99.90;;;;;;5044447;28;20025;-71
2023/06/21 05:56:38;;;;;;;16.70;9.85;;;21.90;99.90;;;;;;5046473;28;20079;-71
2023/06/21 05:59:04;;;;;;;22.58;10.07;;;21.90;99.90;;;;;;5045406;28;20035;-71
2023/06/21 06:01:30;;;;;;;12.63;8.88;;;22.00;99.90;;;;;;5047578;28;20017;-72
2023/06/21 06:03:55;;;;;;;19.30;9.45;;;22.00;99.90;;;;;;5045718;28;20029;-71
2023/06/21 06:06:21;;;;;;;15.02;9.23;;;22.10;99.90;;;;;;5045256;28;20028;-71
2023/06/21 06:08:47;;;;;;;15.93;8.55;;;22.10;99.90;;;;;;5045599;28;21253;-71
2023/06/21 06:11:12;;;;;;;17.05;9.50;;;22.10;99.90;;;;;;5038342;28;20025;-71
2023/06/21 06:13:38;;;;;;;14.85;9.10;;;22.20;99.90;;;;;;5032618;28;20147;-71
2023/06/21 06:16:04;;;;;;;19.08;9.77;;;22.30;99.90;;;;;;5038095;28;20025;-71
2023/06/21 06:18:30;;;;;;;13.80;9.23;;;22.30;99.90;;;;;;5038226;28;20077;-72
2023/06/21 06:20:55;;;;;;;16.27;8.82;;;22.40;99.90;;;;;;5031352;28;20061;-74
2023/06/21 06:23:21;;;;;;;14.68;8.98;;;22.50;99.90;;;;;;5030083;28;20021;-76
2023/06/21 06:25:46;;;;;;;19.40;9.80;;;22.60;99.90;;;;;;5013146;28;20025;-74
2023/06/21 06:28:12;;;;;;;15.82;10.18;;;22.70;99.90;;;;;;5031630;28;20033;-73
2023/06/21 06:30:37;;;;;;;15.25;8.90;;;22.90;99.90;;;;;;5029961;28;20049;-74
2023/06/21 06:33:03;;;;;;;12.60;8.13;;;22.90;99.90;;;;;;5013990;28;20104;-75
2023/06/21 06:35:29;;;;;;;14.13;8.82;;;23.00;99.90;;;;;;5033662;28;20033;-75
2023/06/21 06:37:54;;;;;;;18.70;9.27;;;23.10;99.90;;;;;;5047271;28;20085;-76
2023/06/21 06:40:20;;;;;;;12.73;8.27;;;23.20;99.90;;;;;;5049279;28;20028;-78
2023/06/21 06:42:45;;;;;;;21.40;9.55;;;23.30;99.90;;;;;;5035325;28;20025;-74
2023/06/21 06:45:11;;;;;;;14.05;8.23;;;23.40;99.90;;;;;;5023932;28;20064;-74
2023/06/21 06:47:37;;;;;;;16.20;8.48;;;23.50;99.90;;;;;;5022319;28;20021;-73
2023/06/21 06:50:04;;;;;;;13.02;8.27;;;23.60;99.90;;;;;;5034690;28;20067;-75
2023/06/21 06:52:30;;;;;;;13.90;8.48;;;23.70;99.90;;;;;;5028411;28;20025;-79
2023/06/21 06:54:56;;;;;;;13.55;8.27;;;23.80;99.90;;;;;;5028319;28;20491;-78
2023/06/21 06:57:22;;;;;;;16.10;8.75;;;23.90;99.90;;;;;;5047926;28;20055;-78
2023/06/21 06:59:49;;;;;;;10.52;7.35;;;23.90;99.90;;;;;;5031008;28;20029;-78
2023/06/21 07:02:14;;;;;;;8.77;6.80;;;24.00;99.90;;;;;;5045152;28;20036;-75
2023/06/21 07:04:40;;;;;;;13.18;7.35;;;24.10;99.90;;;;;;5032619;28;20418;-79
2023/06/21 07:07:05;;;;;;;11.50;6.68;;;24.10;99.90;;;;;;5042650;28;20036;-78
2023/06/21 07:09:33;;;;;;;11.27;6.80;;;24.20;99.90;;;;;;5053213;28;20471;-80
2023/06/21 07:12:01;;;;;;;9.95;6.90;;;24.30;99.90;;;;;;5061754;28;20049;-79
2023/06/21 07:14:27;;;;;;;11.18;7.30;;;24.30;99.70;;;;;;5049322;28;20088;-77
2023/06/21 07:16:52;;;;;;;12.68;7.40;;;24.40;99.60;;;;;;5049376;28;20460;-76
2023/06/21 07:19:18;;;;;;;10.57;6.95;;;24.50;99.60;;;;;;5031093;28;20025;-76
2023/06/21 07:21:44;;;;;;;11.02;7.00;;;24.50;99.10;;;;;;5038915;28;20096;-77
2023/06/21 07:24:11;;;;;;;10.85;7.18;;;24.60;99.10;;;;;;5044818;28;20111;-78
2023/06/21 07:26:38;;;;;;;11.65;6.82;;;24.70;99.30;;;;;;5057662;28;20021;-78
2023/06/21 07:29:04;;;;;;;10.13;6.38;;;24.80;98.80;;;;;;5034201;28;20203;-77
2023/06/21 07:31:32;;;;;;;10.05;6.70;;;24.90;98.30;;;;;;5035069;28;20902;-77
2023/06/21 07:33:58;;;;;;;9.80;6.72;;;25.00;98.10;;;;;;5043139;28;20077;-77
2023/06/21 07:36:24;;;;;;;13.30;6.50;;;25.00;97.90;;;;;;5032955;28;20427;-77
2023/06/21 07:38:50;;;;;;;14.95;7.35;;;25.10;97.70;;;;;;5051496;28;20053;-77
2023/06/21 07:41:16;;;;;;;14.80;8.13;;;25.10;98.50;;;;;;5053550;28;20063;-77
2023/06/21 07:43:41;;;;;;;13.63;9.23;;;25.00;98.80;;;;;;5047507;28;20048;-77
2023/06/21 07:46:10;;;;;;;14.70;8.43;;;25.10;98.90;;;;;;5049608;28;20036;-76
2023/06/21 07:48:38;;;;;;;16.55;8.63;;;25.10;99.10;;;;;;5045188;28;20044;-76
2023/06/21 07:51:04;;;;;;;13.68;9.50;;;25.00;99.20;;;;;;5049409;28;20026;-78
2023/06/21 07:53:30;;;;;;;16.15;8.30;;;25.10;99.40;;;;;;5050774;28;20029;-76
2023/06/21 07:55:56;;;;;;;13.75;8.50;;;25.00;99.30;;;;;;5051694;28;20037;-77
2023/06/21 07:58:22;;;;;;;18.52;9.48;;;24.90;99.30;;;;;;5031598;28;20419;-77
2023/06/21 08:00:48;;;;;;;14.10;9.50;;;25.00;99.40;;;;;;5030468;28;20104;-74
2023/06/21 08:03:14;;;;;;;15.40;8.48;;;25.00;99.20;;;;;;5030223;28;20048;-76
2023/06/21 08:05:40;;;;;;;15.38;9.35;;;25.10;99.30;;;;;;5035288;28;20079;-76
2023/06/21 08:08:05;;;;;;;16.08;8.52;;;25.10;99.30;;;;;;5034424;28;20040;-77
2023/06/21 08:10:32;;;;;;;13.98;9.40;;;25.10;99.40;;;;;;5047491;28;20037;-78
2023/06/21 08:12:57;;;;;;;15.55;9.02;;;25.10;99.10;;;;;;5032119;28;20033;-78
2023/06/21 08:15:23;;;;;;;12.77;9.05;;;25.00;99.00;;;;;;5037303;28;20021;-75
2023/06/21 08:17:49;;;;;;;13.73;9.45;;;25.00;99.20;;;;;;5046977;28;20181;-77
2023/06/21 08:20:16;;;;;;;13.07;8.38;;;24.90;99.10;;;;;;5047089;28;20055;-75
2023/06/21 08:22:42;;;;;;;13.35;9.50;;;24.80;99.50;;;;;;5055255;28;20021;-77
2023/06/21 08:25:07;;;;;;;16.23;9.35;;;24.70;99.30;;;;;;5035483;28;20540;-77
2023/06/21 08:27:33;;;;;;;16.10;8.48;;;24.60;99.40;;;;;;5042466;28;20029;-75
2023/06/21 08:29:58;;;;;;;12.77;8.10;;;24.50;99.60;;;;;;5050765;28;20022;-76
2023/06/21 08:32:27;;;;;;;12.00;8.27;;;24.40;99.80;;;;;;5060805;28;20021;-77
2023/06/21 08:34:52;;;;;;;13.70;8.73;;;24.40;99.90;;;;;;5055577;28;20553;-78
2023/06/21 08:37:22;;;;;;;14.45;9.32;;;24.30;99.90;;;;;;5058570;28;20318;-78
2023/06/21 08:39:49;;;;;;;17.00;8.82;;;24.20;99.90;;;;;;5050108;28;20036;-74
2023/06/21 08:42:14;;;;;;;20.30;10.05;;;24.20;99.90;;;;;;5047098;28;20066;-77
2023/06/21 08:44:40;;;;;;;20.75;10.57;;;24.10;99.90;;;;;;5075366;28;20107;-78
2023/06/21 08:47:07;;;;;;;20.95;11.60;;;23.80;99.90;;;;;;5076040;28;20382;-78
2023/06/21 08:49:39;;;;;;;18.33;8.98;;;23.40;99.90;;;;;;5075011;28;20027;-77
2023/06/21 08:52:09;;;;;;;12.80;7.75;;;22.80;99.90;;;;;;5074971;28;20032;-78
2023/06/21 08:54:38;;;;;;;13.95;7.05;;;22.40;99.90;;;;;;5074250;28;20049;-76
2023/06/21 08:57:09;;;;;;;14.27;8.27;;;22.20;99.90;;;;;;5059173;28;20033;-76
2023/06/21 08:59:41;;;;;;;14.07;8.07;;;21.90;99.90;;;;;;5057348;28;20024;-77
2023/06/21 09:02:41;;;;;;;12.98;6.82;;;21.80;99.90;;;;;;5046963;28;20044;-77
2023/06/21 09:05:12;;;;;;;18.10;7.28;;;21.60;99.90;;;;;;5035367;28;20047;-77
2023/06/21 09:07:39;;;;;;;12.52;5.82;;;21.40;99.90;;;;;;5048100;28;20464;-77
2023/06/21 09:10:07;;;;;;;10.05;4.72;;;21.30;99.90;;;;;;5047076;28;20128;-77
2023/06/21 09:12:34;;;;;;;12.38;5.05;;;21.30;99.90;;;;;;5035003;28;20317;-77
2023/06/21 09:15:01;;;;;;;15.32;5.10;;;21.10;99.90;;;;;;5051498;28;20017;-76
2023/06/21 09:17:27;;;;;;;12.25;4.50;;;21.10;99.90;;;;;;5054357;28;20044;-76
2023/06/21 09:19:53;;;;;;;14.05;4.47;;;20.90;99.90;;;;;;5060354;28;20020;-77
2023/06/21 09:22:24;;;;;;;16.25;4.30;;;20.90;99.90;;;;;;5060229;28;20016;-78
2023/06/21 09:24:50;;;;;;;12.98;3.97;;;20.80;99.90;;;;;;5057445;28;20021;-77
2023/06/21 09:27:16;;;;;;;10.60;3.72;;;20.70;99.90;;;;;;5056684;28;20029;-77
2023/06/21 09:29:42;;;;;;;9.77;4.38;;;20.70;99.90;;;;;;5055113;28;20051;-77
2023/06/21 09:32:07;;;;;;;10.27;3.40;;;20.60;99.90;;;;;;5056204;28;20093;-76
2023/06/21 09:34:33;;;;;;;12.93;5.07;;;20.50;99.90;;;;;;5061224;28;20059;-76
2023/06/21 09:36:59;;;;;;;16.08;4.38;;;20.50;99.90;;;;;;5030472;28;20029;-76
2023/06/21 09:39:27;;;;;;;8.25;4.25;;;20.40;99.90;;;;;;5053295;28;20025;-76
2023/06/21 09:41:53;;;;;;;10.25;3.70;;;20.40;99.90;;;;;;5030671;28;20116;-76
2023/06/21 09:44:20;;;;;;;10.43;4.35;;;20.30;99.90;;;;;;5036816;28;20021;-77
2023/06/21 09:46:57;;;;;;;11.32;4.10;;;20.20;99.90;;;;;;5032548;28;20434;-76
2023/06/21 09:49:26;;;;;;;11.85;3.50;;;20.20;99.90;;;;;;5040038;28;20020;-77
2023/06/21 09:51:52;;;;;;;13.45;3.85;;;20.20;99.90;;;;;;5034639;28;20082;-77
2023/06/21 09:54:18;;;;;;;11.15;3.60;;;20.10;99.90;;;;;;5048344;28;20151;-73
2023/06/21 09:56:44;;;;;;;17.33;4.82;;;20.10;99.90;;;;;;5050462;28;20483;-72
2023/06/21 09:59:18;;;;;;;12.20;3.88;;;20.00;99.90;;;;;;5050736;28;20036;-73
2023/06/21 10:01:45;;;;;;;12.13;4.53;;;20.00;99.90;;;;;;5057583;28;20021;-73
2023/06/21 10:04:13;;;;;;;14.25;4.57;;;19.90;99.90;;;;;;5070416;28;20023;-73
2023/06/21 10:06:47;;;;;;;14.70;4.90;;;19.90;99.90;;;;;;5034463;28;20017;-73
2023/06/21 10:09:12;;;;;;;14.18;5.80;;;19.90;99.90;;;;;;5039081;28;20025;-74
2023/06/21 10:11:38;;;;;;;13.88;4.38;;;19.90;99.90;;;;;;5040370;28;20079;-74
2023/06/21 10:14:04;;;;;;;14.30;4.60;;;19.90;99.90;;;;;;5033584;28;20120;-74
2023/06/21 10:16:32;;;;;;;16.58;5.22;;;19.80;99.90;;;;;;5032959;28;20029;-74
2023/06/21 10:19:00;;;;;;;18.50;5.53;;;19.80;99.90;;;;;;5017464;28;20039;-73
2023/06/21 10:21:28;;;;;;;19.13;5.22;;;19.80;99.90;;;;;;5042801;28;20115;-72
2023/06/21 10:23:55;;;;;;;17.65;4.75;;;19.80;99.90;;;;;;4993110;28;20454;-73
2023/06/21 10:26:25;;;;;;;12.80;4.82;;;19.80;99.90;;;;;;5026020;28;20036;-73
2023/06/21 10:28:56;;;;;;;17.08;5.70;;;19.80;99.90;;;;;;5009103;28;20047;-75
2023/06/21 10:31:23;;;;;;;16.83;5.22;;;19.90;99.90;;;;;;5038403;28;20513;-74
2023/06/21 10:33:50;;;;;;;20.58;4.53;;;19.90;99.90;;;;;;5013559;28;20442;-74
2023/06/21 10:36:21;;;;;;;13.50;4.63;;;20.00;99.90;;;;;;5029206;28;20115;-73
2023/06/21 10:38:48;;;;;;;15.88;4.25;;;20.00;99.90;;;;;;5030163;28;20037;-75
2023/06/21 10:41:15;;;;;;;17.80;4.25;;;20.10;99.90;;;;;;5037941;28;20041;-74
2023/06/21 10:43:42;;;;;;;16.40;5.25;;;20.20;99.90;;;;;;5023510;28;20124;-74
2023/06/21 10:46:10;;;;;;;16.40;4.97;;;20.20;99.90;;;;;;5040262;28;20051;-74
2023/06/21 10:48:36;;;;;;;16.45;4.25;;;20.30;99.90;;;;;;5041583;28;20028;-75
2023/06/21 10:51:04;;;;;;;15.73;5.00;;;20.40;99.90;;;;;;5046662;28;20095;-74
2023/06/21 10:53:34;;;;;;;12.18;3.97;;;20.50;99.90;;;;;;5019839;28;20079;-74
2023/06/21 10:56:01;;;;;;;19.15;4.57;;;20.50;99.90;;;;;;5041955;28;20571;-75
2023/06/21 10:58:28;;;;;;;13.95;4.22;;;20.60;99.90;;;;;;5034303;28;21350;-75
2023/06/21 11:00:55;;;;;;;19.17;5.63;;;20.80;99.90;;;;;;5023570;28;20107;-75
2023/06/21 11:03:24;;;;;;;18.02;5.97;;;20.90;99.90;;;;;;5033138;28;20497;-75
2023/06/21 11:05:54;;;;;;;15.63;4.95;;;21.00;99.90;;;;;;5046775;28;20048;-74
2023/06/21 11:08:30;;;;;;;15.90;4.65;;;21.20;99.90;;;;;;5042155;28;20536;-76
2023/06/21 11:10:56;;;;;;;15.52;4.10;;;21.40;99.90;;;;;;5044416;28;20025;-74
2023/06/21 11:13:34;;;;;;;10.80;3.65;;;21.50;99.90;;;;;;5041809;28;20550;-73
2023/06/21 11:16:11;;;;;;;16.35;4.55;;;21.60;99.90;;;;;;5048702;28;20490;-74
2023/06/21 11:18:37;;;;;;;14.85;5.00;;;21.90;99.90;;;;;;5048752;28;20051;-75
2023/06/21 11:21:05;;;;;;;16.00;4.97;;;22.00;99.90;;;;;;5028141;28;20044;-76
2023/06/21 11:23:46;;;;;;;12.07;3.63;;;22.10;99.90;;;;;;5012346;28;20040;-75
2023/06/21 11:26:14;;;;;;;13.93;4.40;;;22.30;99.90;;;;;;5039244;28;20029;-75
2023/06/21 11:28:49;;;;;;;12.88;4.85;;;22.40;99.90;;;;;;5036103;28;20048;-74
2023/06/21 11:31:18;;;;;;;13.35;3.70;;;22.50;99.90;;;;;;5041392;28;20459;-75
2023/06/21 11:33:44;;;;;;;10.20;4.03;;;22.60;99.90;;;;;;5038334;28;20029;-75
2023/06/21 11:36:10;;;;;;;10.23;3.33;;;22.70;99.90;;;;;;5040576;28;20031;-74
2023/06/21 11:38:37;;;;;;;9.45;3.58;;;22.80;99.90;;;;;;5039792;28;20442;-74
2023/06/21 11:41:41;;;;;;;15.82;3.90;;;22.90;99.90;;;;;;5040106;28;20032;-75
2023/06/21 11:44:08;;;;;;;9.18;3.70;;;22.90;99.90;;;;;;5034322;28;20084;-74
2023/06/21 11:46:34;;;;;;;8.43;3.15;;;23.10;99.90;;;;;;5020926;28;20037;-76
2023/06/21 11:49:00;;;;;;;9.85;3.65;;;23.10;99.90;;;;;;5021834;28;20033;-76
2023/06/21 11:51:28;;;;;;;8.25;3.72;;;23.20;99.90;;;;;;5039759;28;20484;-76
2023/06/21 11:53:55;;;;;;;12.40;3.70;;;23.30;99.90;;;;;;5024553;28;20070;-75
2023/06/21 11:56:21;;;;;;;13.30;3.88;;;23.30;99.90;;;;;;5032276;28;20136;-75
2023/06/21 11:58:50;;;;;;;10.70;3.50;;;23.40;99.90;;;;;;5038859;28;20441;-76
2023/06/21 12:01:16;;;;;;;6.70;3.35;;;23.50;99.90;;;;;;5038771;28;20091;-76
2023/06/21 12:03:41;;;;;;;7.88;3.40;;;23.60;99.90;;;;;;5040295;28;20017;-76
2023/06/21 12:06:07;;;;;;;9.10;3.75;;;23.70;99.90;;;;;;5018126;28;20033;-76
2023/06/21 12:08:35;;;;;;;8.20;3.25;;;23.80;99.90;;;;;;5044530;28;20061;-76
2023/06/21 12:11:06;;;;;;;8.85;2.60;;;23.80;99.90;;;;;;5045167;28;20483;-76
2023/06/21 12:13:33;;;;;;;7.00;2.45;;;23.90;99.90;;;;;;5045257;28;20140;-76
2023/06/21 12:16:04;;;;;;;4.97;2.80;;;23.90;99.90;;;;;;5027155;28;20025;-76
2023/06/21 12:18:32;;;;;;;5.38;3.03;;;24.00;99.90;;;;;;5044763;28;20352;-76
2023/06/21 12:20:59;;;;;;;8.77;3.65;;;23.90;99.90;;;;;;5048000;28;20033;-76
2023/06/21 12:23:28;;;;;;;8.82;3.55;;;23.80;99.90;;;;;;5029691;28;20027;-76
2023/06/21 12:25:59;;;;;;;6.03;3.28;;;23.90;99.90;;;;;;5038389;28;20018;-77
2023/06/21 12:28:25;;;;;;;5.97;2.85;;;24.00;99.90;;;;;;5043198;28;20033;-77
2023/06/21 12:31:02;;;;;;;5.65;2.95;;;24.10;99.90;;;;;;5045901;28;20090;-76
2023/06/21 12:33:28;;;;;;;9.50;3.22;;;24.10;99.90;;;;;;5036437;28;21848;-77
2023/06/21 12:36:26;;;;;;;8.05;2.92;;;24.10;99.90;;;;;;5045913;28;20080;-77
2023/06/21 12:39:02;;;;;;;6.72;3.72;;;24.10;99.90;;;;;;5047558;28;20021;-77
2023/06/21 12:41:30;;;;;;;6.57;2.42;;;24.10;99.90;;;;;;5044589;28;20052;-76